sensor_id;sensor_type;location;lat;lon;timestamp;pressure;altitude;pressure_sealevel;temperature;humidity
6853;BME280;3465;42.144;24.722;2022-10-04T00:02:02;99558.97;;;13.82;77.43
6853;BME280;3465;42.144;24.722;2022-10-04T00:07:03;99571.88;;;13.77;77.61
6853;BME280;3465;42.144;24.722;2022-10-04T00:09:35;99574.47;;;13.76;77.66
6853;BME280;3465;42.144;24.722;2022-10-04T00:12:47;99576.16;;;13.71;78.12
6853;BME280;3465;42.144;24.722;2022-10-04T00:15:15;99567.53;;;13.67;78.55
6853;BME280;3465;42.144;24.722;2022-10-04T00:17:58;99574.41;;;13.68;78.64
6853;BME280;3465;42.144;24.722;2022-10-04T00:26:01;99559.72;;;13.42;80.31
6853;BME280;3465;42.144;24.722;2022-10-04T00:31:17;99565.69;;;13.35;81.09
6853;BME280;3465;42.144;24.722;2022-10-04T00:41:58;99495.88;;;12.98;80.55
6853;BME280;3465;42.144;24.722;2022-10-04T00:44:50;99577.78;;;13.42;80.22
6853;BME280;3465;42.144;24.722;2022-10-04T00:49:53;99572.59;;;13.33;81.45
6853;BME280;3465;42.144;24.722;2022-10-04T00:52:25;99581.13;;;13.26;81.61
6853;BME280;3465;42.144;24.722;2022-10-04T00:54:57;99563.06;;;13.23;81.81
6853;BME280;3465;42.144;24.722;2022-10-04T00:57:40;99560.47;;;13.20;81.97
6853;BME280;3465;42.144;24.722;2022-10-04T01:00:16;99577.69;;;13.28;81.40
6853;BME280;3465;42.144;24.722;2022-10-04T01:05:16;99560.44;;;13.14;82.08
6853;BME280;3465;42.144;24.722;2022-10-04T01:07:47;99561.28;;;13.07;82.30
6853;BME280;3465;42.144;24.722;2022-10-04T01:13:03;99577.63;;;13.12;82.51
6853;BME280;3465;42.144;24.722;2022-10-04T01:15:52;99584.50;;;13.16;82.76
6853;BME280;3465;42.144;24.722;2022-10-04T01:21:07;99570.72;;;13.11;83.07
6853;BME280;3465;42.144;24.722;2022-10-04T01:23:43;99575.94;;;13.17;82.66
6853;BME280;3465;42.144;24.722;2022-10-04T01:29:06;99572.47;;;13.10;82.71
6853;BME280;3465;42.144;24.722;2022-10-04T01:31:34;99579.31;;;13.07;83.29
6853;BME280;3465;42.144;24.722;2022-10-04T01:34:01;99575.88;;;13.05;82.89
6853;BME280;3465;42.144;24.722;2022-10-04T01:36:28;99581.03;;;13.08;83.21
6853;BME280;3465;42.144;24.722;2022-10-04T01:38:54;99567.25;;;13.03;82.19
6853;BME280;3465;42.144;24.722;2022-10-04T01:41:38;99586.19;;;13.06;81.72
6853;BME280;3465;42.144;24.722;2022-10-04T01:44:08;99564.63;;;12.96;81.44
6853;BME280;3465;42.144;24.722;2022-10-04T01:46:36;99589.66;;;13.13;80.82
6853;BME280;3465;42.144;24.722;2022-10-04T01:49:06;99574.94;;;12.96;80.57
6853;BME280;3465;42.144;24.722;2022-10-04T01:51:40;99592.19;;;13.02;81.44
6853;BME280;3465;42.144;24.722;2022-10-04T01:54:15;99571.47;;;12.93;82.12
6853;BME280;3465;42.144;24.722;2022-10-04T01:57:23;99574.88;;;12.87;82.65
6853;BME280;3465;42.144;24.722;2022-10-04T01:59:55;99596.50;;;13.05;83.08
6853;BME280;3465;42.144;24.722;2022-10-04T02:02:34;99577.56;;;13.01;83.70
6853;BME280;3465;42.144;24.722;2022-10-04T02:05:03;99570.69;;;13.02;83.67
6853;BME280;3465;42.144;24.722;2022-10-04T02:07:31;99595.72;;;13.18;84.01
6853;BME280;3465;42.144;24.722;2022-10-04T02:10:03;99578.47;;;13.14;82.82
6853;BME280;3465;42.144;24.722;2022-10-04T02:12:29;99590.53;;;13.13;82.57
6853;BME280;3465;42.144;24.722;2022-10-04T02:14:57;99581.88;;;13.02;83.95
6853;BME280;3465;42.144;24.722;2022-10-04T02:17:29;99590.41;;;12.96;84.32
6853;BME280;3465;42.144;24.722;2022-10-04T02:19:56;99569.66;;;12.78;84.66
6853;BME280;3465;42.144;24.722;2022-10-04T02:22:26;99597.22;;;12.88;84.76
6853;BME280;3465;42.144;24.722;2022-10-04T02:24:55;99596.34;;;12.86;86.01
6853;BME280;3465;42.144;24.722;2022-10-04T02:27:26;99604.97;;;12.93;85.42
6853;BME280;3465;42.144;24.722;2022-10-04T02:29:59;99592.03;;;12.82;85.45
6853;BME280;3465;42.144;24.722;2022-10-04T02:32:25;99584.28;;;12.79;85.66
6853;BME280;3465;42.144;24.722;2022-10-04T02:35:09;99586.91;;;12.87;85.21
6853;BME280;3465;42.144;24.722;2022-10-04T02:37:36;99593.72;;;12.79;84.82
6853;BME280;3465;42.144;24.722;2022-10-04T02:40:08;99580.84;;;12.80;85.27
6853;BME280;3465;42.144;24.722;2022-10-04T02:42:58;99580.78;;;12.73;86.38
6853;BME280;3465;42.144;24.722;2022-10-04T02:48:10;99596.25;;;12.74;87.56
6853;BME280;3465;42.144;24.722;2022-10-04T02:50:44;99599.72;;;12.76;87.84
6853;BME280;3465;42.144;24.722;2022-10-04T02:53:23;99613.56;;;12.92;87.24
6853;BME280;3465;42.144;24.722;2022-10-04T02:55:51;99598.91;;;12.86;86.83
6853;BME280;3465;42.144;24.722;2022-10-04T02:58:21;99617.06;;;12.98;86.16
6853;BME280;3465;42.144;24.722;2022-10-04T03:00:55;99627.47;;;13.12;85.46
6853;BME280;3465;42.144;24.722;2022-10-04T03:03:27;99631.84;;;13.22;85.40
6853;BME280;3465;42.144;24.722;2022-10-04T03:06:12;99626.69;;;13.24;85.21
6853;BME280;3465;42.144;24.722;2022-10-04T03:11:07;99618.03;;;13.13;85.71
6853;BME280;3465;42.144;24.722;2022-10-04T03:13:34;99633.56;;;13.23;85.94
6853;BME280;3465;42.144;24.722;2022-10-04T03:16:01;99564.56;;;12.86;85.13
6853;BME280;3465;42.144;24.722;2022-10-04T03:18:28;99635.28;;;13.23;84.94
6853;BME280;3465;42.144;24.722;2022-10-04T03:20:55;99618.88;;;13.12;84.74
6853;BME280;3465;42.144;24.722;2022-10-04T03:23:21;99616.25;;;13.06;84.87
6853;BME280;3465;42.144;24.722;2022-10-04T03:25:56;99615.44;;;13.11;84.71
6853;BME280;3465;42.144;24.722;2022-10-04T03:28:26;99623.16;;;13.08;84.06
6853;BME280;3465;42.144;24.722;2022-10-04T03:30:54;99619.69;;;13.02;84.21
6853;BME280;3465;42.144;24.722;2022-10-04T03:33:22;99631.72;;;13.07;84.39
6853;BME280;3465;42.144;24.722;2022-10-04T03:35:51;99622.31;;;13.11;83.58
6853;BME280;3465;42.144;24.722;2022-10-04T03:38:18;99636.09;;;13.14;83.00
6853;BME280;3465;42.144;24.722;2022-10-04T03:40:54;99625.72;;;13.04;83.23
6853;BME280;3465;42.144;24.722;2022-10-04T03:43:28;99627.44;;;13.05;83.11
6853;BME280;3465;42.144;24.722;2022-10-04T03:46:00;99636.06;;;13.10;83.52
6853;BME280;3465;42.144;24.722;2022-10-04T03:48:33;99636.06;;;13.10;84.15
6853;BME280;3465;42.144;24.722;2022-10-04T03:51:02;99629.91;;;12.94;84.35
6853;BME280;3465;42.144;24.722;2022-10-04T03:53:30;99631.59;;;12.89;85.01
6853;BME280;3465;42.144;24.722;2022-10-04T03:55:58;99627.22;;;12.79;84.92
6853;BME280;3465;42.144;24.722;2022-10-04T03:58:25;99632.41;;;12.82;85.26
6853;BME280;3465;42.144;24.722;2022-10-04T04:01:09;99635.00;;;12.85;85.26
6853;BME280;3465;42.144;24.722;2022-10-04T04:04:00;99634.16;;;12.84;84.41
6853;BME280;3465;42.144;24.722;2022-10-04T04:06:53;99631.44;;;12.71;84.94
6853;BME280;3465;42.144;24.722;2022-10-04T04:09:47;99631.47;;;12.74;84.44
6853;BME280;3465;42.144;24.722;2022-10-04T04:12:30;99634.06;;;12.77;84.39
6853;BME280;3465;42.144;24.722;2022-10-04T04:14:59;99634.91;;;12.73;84.60
6853;BME280;3465;42.144;24.722;2022-10-04T04:19:57;99645.31;;;12.86;83.44
6853;BME280;3465;42.144;24.722;2022-10-04T04:22:23;99653.06;;;12.89;83.50
6853;BME280;3465;42.144;24.722;2022-10-04T04:24:59;99630.56;;;12.70;83.38
6853;BME280;3465;42.144;24.722;2022-10-04T04:27:27;99652.19;;;12.84;82.84
6853;BME280;3465;42.144;24.722;2022-10-04T04:29:54;99645.28;;;12.85;82.30
6853;BME280;3465;42.144;24.722;2022-10-04T04:32:25;99653.97;;;12.96;81.33
6853;BME280;3465;42.144;24.722;2022-10-04T04:35:00;99649.75;;;13.01;80.37
6853;BME280;3465;42.144;24.722;2022-10-04T04:37:33;99637.66;;;12.95;79.69
6853;BME280;3465;42.144;24.722;2022-10-04T04:40:19;99642.81;;;12.97;79.77
6853;BME280;3465;42.144;24.722;2022-10-04T04:42:46;99659.13;;;12.99;79.75
6853;BME280;3465;42.144;24.722;2022-10-04T04:45:19;99666.13;;;13.08;79.49
6853;BME280;3465;42.144;24.722;2022-10-04T04:47:48;99664.41;;;13.05;78.89
6853;BME280;3465;42.144;24.722;2022-10-04T04:50:17;99673.03;;;13.09;78.74
6853;BME280;3465;42.144;24.722;2022-10-04T04:52:49;99660.94;;;13.03;78.89
6853;BME280;3465;42.144;24.722;2022-10-04T04:55:21;99675.63;;;13.15;78.74
6853;BME280;3465;42.144;24.722;2022-10-04T04:57:52;99677.31;;;13.07;78.11
6853;BME280;3465;42.144;24.722;2022-10-04T05:00:23;99683.66;;;13.58;77.56
6853;BME280;3465;42.144;24.722;2022-10-04T05:02:55;99671.88;;;14.35;72.83
6853;BME280;3465;42.144;24.722;2022-10-04T05:05:28;99687.44;;;15.03;69.53
6853;BME280;3465;42.144;24.722;2022-10-04T05:10:32;99695.09;;;15.82;66.44
6853;BME280;3465;42.144;24.722;2022-10-04T05:12:59;99686.59;;;17.05;61.67
6853;BME280;3465;42.144;24.722;2022-10-04T05:15:30;99683.97;;;18.55;56.66
6853;BME280;3465;42.144;24.722;2022-10-04T05:17:56;99701.88;;;19.76;52.13
6853;BME280;3465;42.144;24.722;2022-10-04T05:20:22;99707.78;;;20.29;49.99
6853;BME280;3465;42.144;24.722;2022-10-04T05:22:48;99709.94;;;20.86;48.43
6853;BME280;3465;42.144;24.722;2022-10-04T05:25:33;99717.03;;;21.50;46.46
6853;BME280;3465;42.144;24.722;2022-10-04T05:27:59;99704.78;;;22.15;44.48
6853;BME280;3465;42.144;24.722;2022-10-04T05:30:44;99729.13;;;23.04;42.16
6853;BME280;3465;42.144;24.722;2022-10-04T05:33:23;99734.19;;;23.36;41.01
6853;BME280;3465;42.144;24.722;2022-10-04T05:43:46;99748.09;;;22.85;41.47
6853;BME280;3465;42.144;24.722;2022-10-04T05:46:25;99746.19;;;21.35;44.97
6853;BME280;3465;42.144;24.722;2022-10-04T05:49:06;99734.00;;;19.31;49.97
6853;BME280;3465;42.144;24.722;2022-10-04T05:51:34;99741.47;;;18.38;53.25
6853;BME280;3465;42.144;24.722;2022-10-04T05:54:12;99737.25;;;17.51;56.63
6853;BME280;3465;42.144;24.722;2022-10-04T05:56:58;99753.25;;;16.98;59.55
6853;BME280;3465;42.144;24.722;2022-10-04T06:02:36;99778.34;;;16.96;61.13
6853;BME280;3465;42.144;24.722;2022-10-04T06:05:13;99761.78;;;17.11;60.22
6853;BME280;3465;42.144;24.722;2022-10-04T06:08:03;99782.47;;;17.20;60.17
6853;BME280;3465;42.144;24.722;2022-10-04T06:24:20;99792.63;;;17.53;58.82
6853;BME280;3465;42.144;24.722;2022-10-04T06:26:52;99803.47;;;17.96;58.01
6853;BME280;3465;42.144;24.722;2022-10-04T06:29:25;99807.00;;;19.77;53.09
6853;BME280;3465;42.144;24.722;2022-10-04T06:34:48;99800.97;;;23.51;41.44
6853;BME280;3465;42.144;24.722;2022-10-04T07:00:12;99822.56;;;17.89;57.21
6853;BME280;3465;42.144;24.722;2022-10-04T07:03:00;99828.78;;;17.73;57.98
6853;BME280;3465;42.144;24.722;2022-10-04T07:05:43;99793.53;;;17.49;59.08
6853;BME280;3465;42.144;24.722;2022-10-04T07:08:16;99811.94;;;18.14;58.10
6853;BME280;3465;42.144;24.722;2022-10-04T07:10:58;99821.94;;;19.67;53.78
6853;BME280;3465;42.144;24.722;2022-10-04T07:13:29;99840.88;;;19.77;51.91
6853;BME280;3465;42.144;24.722;2022-10-04T07:16:06;99831.38;;;19.74;51.97
6853;BME280;3465;42.144;24.722;2022-10-04T07:21:17;99780.44;;;19.57;51.46
6853;BME280;3465;42.144;24.722;2022-10-04T07:26:45;99852.47;;;20.55;49.30
6853;BME280;3465;42.144;24.722;2022-10-04T07:29:36;99839.66;;;20.43;49.81
6853;BME280;3465;42.144;24.722;2022-10-04T07:32:35;99854.78;;;21.10;48.32
6853;BME280;3465;42.144;24.722;2022-10-04T07:37:59;99849.66;;;22.12;45.38
6853;BME280;3465;42.144;24.722;2022-10-04T07:40:36;99852.47;;;21.70;45.23
6853;BME280;3465;42.144;24.722;2022-10-04T07:43:10;99853.31;;;21.72;45.76
6853;BME280;3465;42.144;24.722;2022-10-04T07:45:40;99861.47;;;22.59;43.99
6853;BME280;3465;42.144;24.722;2022-10-04T07:48:18;99873.97;;;24.17;40.75
6853;BME280;3465;42.144;24.722;2022-10-04T07:54:14;99884.78;;;28.51;33.22
6853;BME280;3465;42.144;24.722;2022-10-04T07:56:51;99870.97;;;29.87;31.50
6853;BME280;3465;42.144;24.722;2022-10-04T08:01:57;99878.66;;;31.74;28.23
6853;BME280;3465;42.144;24.722;2022-10-04T08:04:35;99896.66;;;32.35;27.55
6853;BME280;3465;42.144;24.722;2022-10-04T08:07:31;99898.94;;;32.66;26.71
6853;BME280;3465;42.144;24.722;2022-10-04T08:10:16;99890.41;;;32.49;26.78
6853;BME280;3465;42.144;24.722;2022-10-04T08:13:01;99891.63;;;32.95;26.72
6853;BME280;3465;42.144;24.722;2022-10-04T08:15:38;99897.81;;;33.31;26.04
6853;BME280;3465;42.144;24.722;2022-10-04T08:21:02;99908.44;;;33.44;25.49
6853;BME280;3465;42.144;24.722;2022-10-04T08:32:04;99906.44;;;32.22;26.03
6853;BME280;3465;42.144;24.722;2022-10-04T08:34:54;99903.34;;;32.28;25.43
6853;BME280;3465;42.144;24.722;2022-10-04T08:37:51;99897.72;;;33.57;24.62
6853;BME280;3465;42.144;24.722;2022-10-04T09:00:55;99926.31;;;34.82;23.26
6853;BME280;3465;42.144;24.722;2022-10-04T09:06:21;99926.66;;;33.37;23.65
6853;BME280;3465;42.144;24.722;2022-10-04T09:11:44;99906.38;;;31.44;25.25
6853;BME280;3465;42.144;24.722;2022-10-04T09:33:31;99919.69;;;29.22;27.37
6853;BME280;3465;42.144;24.722;2022-10-04T09:52:35;99907.47;;;28.21;28.72
6853;BME280;3465;42.144;24.722;2022-10-04T10:14:28;99907.44;;;25.95;32.13
6853;BME280;3465;42.144;24.722;2022-10-04T10:17:19;99887.31;;;25.06;32.75
6853;BME280;3465;42.144;24.722;2022-10-04T10:33:43;99899.53;;;27.14;30.60
6853;BME280;3465;42.144;24.722;2022-10-04T10:39:49;99901.16;;;26.98;30.12
6853;BME280;3465;42.144;24.722;2022-10-04T11:03:57;99888.25;;;26.73;29.95
6853;BME280;3465;42.144;24.722;2022-10-04T11:09:13;99888.63;;;25.82;31.24
6853;BME280;3465;42.144;24.722;2022-10-04T11:12:23;99882.03;;;25.29;31.11
6853;BME280;3465;42.144;24.722;2022-10-04T11:15:08;99894.91;;;25.13;31.90
6853;BME280;3465;42.144;24.722;2022-10-04T11:18:02;99895.25;;;24.81;32.50
6853;BME280;3465;42.144;24.722;2022-10-04T11:26:31;99887.53;;;24.52;33.35
6853;BME280;3465;42.144;24.722;2022-10-04T11:28:45;99877.06;;;24.28;33.81
6853;BME280;3465;42.144;24.722;2022-10-04T11:37:04;99886.38;;;23.85;34.63
6853;BME280;3465;42.144;24.722;2022-10-04T11:40:38;99873.44;;;23.53;34.53
6853;BME280;3465;42.144;24.722;2022-10-04T11:56:22;99876.50;;;22.51;36.51
6853;BME280;3465;42.144;24.722;2022-10-04T12:02:08;99885.84;;;21.95;37.88
6853;BME280;3465;42.144;24.722;2022-10-04T12:10:28;99888.00;;;21.80;39.05
6853;BME280;3465;42.144;24.722;2022-10-04T12:13:09;99884.34;;;21.87;38.89
6853;BME280;3465;42.144;24.722;2022-10-04T12:15:51;99889.41;;;21.93;38.73
6853;BME280;3465;42.144;24.722;2022-10-04T12:29:11;99886.13;;;21.85;39.30
6853;BME280;3465;42.144;24.722;2022-10-04T12:31:47;99875.97;;;22.06;39.19
6853;BME280;3465;42.144;24.722;2022-10-04T13:04:57;99886.47;;;21.70;39.55
6853;BME280;3465;42.144;24.722;2022-10-04T13:07:49;99889.84;;;21.76;39.41
6853;BME280;3465;42.144;24.722;2022-10-04T13:13:25;99884.56;;;21.41;40.08
6853;BME280;3465;42.144;24.722;2022-10-04T13:21:40;99867.84;;;21.10;40.04
6853;BME280;3465;42.144;24.722;2022-10-04T13:27:31;99890.69;;;21.40;40.44
6853;BME280;3465;42.144;24.722;2022-10-04T13:30:14;99892.56;;;21.34;40.34
6853;BME280;3465;42.144;24.722;2022-10-04T13:47:02;99888.22;;;20.93;40.85
6853;BME280;3465;42.144;24.722;2022-10-04T13:55:27;99874.88;;;21.08;40.56
6853;BME280;3465;42.144;24.722;2022-10-04T14:09:21;99887.66;;;20.79;41.21
6853;BME280;3465;42.144;24.722;2022-10-04T14:16:02;99897.06;;;20.87;41.09
6853;BME280;3465;42.144;24.722;2022-10-04T15:01:37;99903.16;;;20.86;40.27
6853;BME280;3465;42.144;24.722;2022-10-04T15:07:20;99918.25;;;20.72;41.32
6853;BME280;3465;42.144;24.722;2022-10-04T15:17:26;99933.25;;;20.63;41.38
6853;BME280;3465;42.144;24.722;2022-10-04T15:22:38;99921.28;;;20.01;42.82
6853;BME280;3465;42.144;24.722;2022-10-04T15:25:35;99946.50;;;20.02;43.08
6853;BME280;3465;42.144;24.722;2022-10-04T15:28:03;99937.16;;;19.89;43.46
6853;BME280;3465;42.144;24.722;2022-10-04T15:30:44;99936.41;;;19.81;43.49
6853;BME280;3465;42.144;24.722;2022-10-04T15:36:08;99949.00;;;19.53;45.10
6853;BME280;3465;42.144;24.722;2022-10-04T15:41:44;99952.63;;;19.42;46.46
6853;BME280;3465;42.144;24.722;2022-10-04T16:00:36;99974.16;;;18.86;50.50
6853;BME280;3465;42.144;24.722;2022-10-04T16:09:34;99981.50;;;18.49;52.16
6853;BME280;3465;42.144;24.722;2022-10-04T16:12:27;99990.31;;;18.30;53.08
6853;BME280;3465;42.144;24.722;2022-10-04T16:22:34;100007.09;;;17.89;55.55
6853;BME280;3465;42.144;24.722;2022-10-04T16:33:23;100011.47;;;17.81;58.46
6853;BME280;3465;42.144;24.722;2022-10-04T16:38:34;100019.31;;;17.82;57.65
6853;BME280;3465;42.144;24.722;2022-10-04T16:41:12;100022.72;;;17.84;58.15
6853;BME280;3465;42.144;24.722;2022-10-04T16:43:51;100022.78;;;17.78;58.29
6853;BME280;3465;42.144;24.722;2022-10-04T16:46:28;100028.03;;;17.63;58.91
6853;BME280;3465;42.144;24.722;2022-10-04T16:48:58;100034.19;;;17.55;59.24
6853;BME280;3465;42.144;24.722;2022-10-04T17:08:38;100073.97;;;17.63;61.03
6853;BME280;3465;42.144;24.722;2022-10-04T17:13:59;100086.09;;;17.62;60.44
6853;BME280;3465;42.144;24.722;2022-10-04T17:24:12;100098.28;;;17.44;61.06
6853;BME280;3465;42.144;24.722;2022-10-04T17:40:18;100122.47;;;17.58;59.58
6853;BME280;3465;42.144;24.722;2022-10-04T17:42:59;100124.25;;;17.48;59.36
6853;BME280;3465;42.144;24.722;2022-10-04T17:48:26;100121.66;;;17.42;59.69
6853;BME280;3465;42.144;24.722;2022-10-04T18:05:12;100143.34;;;16.99;60.07
6853;BME280;3465;42.144;24.722;2022-10-04T18:07:47;100156.31;;;17.00;60.48
6853;BME280;3465;42.144;24.722;2022-10-04T18:10:40;100161.53;;;16.97;60.35
6853;BME280;3465;42.144;24.722;2022-10-04T18:13:17;100141.63;;;16.84;59.85
6853;BME280;3465;42.144;24.722;2022-10-04T18:15:53;100162.41;;;16.90;59.52
6853;BME280;3465;42.144;24.722;2022-10-04T18:18:28;100177.09;;;16.91;60.01
6853;BME280;3465;42.144;24.722;2022-10-04T18:21:00;100179.69;;;16.91;60.04
6853;BME280;3465;42.144;24.722;2022-10-04T18:23:31;100168.47;;;16.85;60.14
6853;BME280;3465;42.144;24.722;2022-10-04T18:26:11;100180.56;;;16.81;60.27
6853;BME280;3465;42.144;24.722;2022-10-04T18:28:42;100185.75;;;16.77;60.15
6853;BME280;3465;42.144;24.722;2022-10-04T18:31:37;100196.13;;;16.81;60.17
6853;BME280;3465;42.144;24.722;2022-10-04T18:34:16;100191.81;;;16.80;60.42
6853;BME280;3465;42.144;24.722;2022-10-04T18:37:25;100209.09;;;16.83;60.52
6853;BME280;3465;42.144;24.722;2022-10-04T18:39:52;100200.47;;;16.79;60.43
6853;BME280;3465;42.144;24.722;2022-10-04T18:42:21;100208.25;;;16.87;60.38
6853;BME280;3465;42.144;24.722;2022-10-04T18:44:58;100210.84;;;16.82;59.92
6853;BME280;3465;42.144;24.722;2022-10-04T18:47:44;100215.16;;;16.82;59.89
6853;BME280;3465;42.144;24.722;2022-10-04T18:50:37;100216.03;;;16.85;59.56
6853;BME280;3465;42.144;24.722;2022-10-04T18:55:58;100227.25;;;16.77;59.99
6853;BME280;3465;42.144;24.722;2022-10-04T18:58:29;100225.53;;;16.70;60.54
6853;BME280;3465;42.144;24.722;2022-10-04T19:10:41;100233.19;;;16.25;63.37
6853;BME280;3465;42.144;24.722;2022-10-04T19:26:40;100240.84;;;15.99;64.68
6853;BME280;3465;42.144;24.722;2022-10-04T19:32:03;100253.75;;;15.93;65.60
6853;BME280;3465;42.144;24.722;2022-10-04T19:34:57;100259.78;;;15.85;65.88
6853;BME280;3465;42.144;24.722;2022-10-04T19:42:48;100264.06;;;15.80;66.19
6853;BME280;3465;42.144;24.722;2022-10-04T19:45:28;100274.41;;;15.77;66.33
6853;BME280;3465;42.144;24.722;2022-10-04T19:48:00;100274.41;;;15.77;65.77
6853;BME280;3465;42.144;24.722;2022-10-04T19:50:34;100274.44;;;15.81;65.53
6853;BME280;3465;42.144;24.722;2022-10-04T19:53:02;100274.44;;;15.81;65.64
6853;BME280;3465;42.144;24.722;2022-10-04T19:55:56;100274.44;;;15.83;65.48
6853;BME280;3465;42.144;24.722;2022-10-04T19:58:41;100270.97;;;15.79;65.58
6853;BME280;3465;42.144;24.722;2022-10-04T20:01:17;100197.31;;;15.33;65.58
6853;BME280;3465;42.144;24.722;2022-10-04T20:03:45;100250.16;;;15.64;65.36
6853;BME280;3465;42.144;24.722;2022-10-04T20:06:19;100272.66;;;15.74;65.91
6853;BME280;3465;42.144;24.722;2022-10-04T20:13:40;100270.91;;;15.65;65.86
6853;BME280;3465;42.144;24.722;2022-10-04T20:16:05;100253.53;;;15.51;65.88
6853;BME280;3465;42.144;24.722;2022-10-04T20:21:07;100296.81;;;15.65;66.30
6853;BME280;3465;42.144;24.722;2022-10-04T20:28:41;100296.81;;;15.70;66.25
6853;BME280;3465;42.144;24.722;2022-10-04T20:33:48;100299.41;;;15.67;65.98
6853;BME280;3465;42.144;24.722;2022-10-04T20:44:49;100296.69;;;15.50;66.33
6853;BME280;3465;42.144;24.722;2022-10-04T20:49:59;100291.44;;;15.41;66.71
6853;BME280;3465;42.144;24.722;2022-10-04T20:52:31;100302.56;;;15.34;67.29
6853;BME280;3465;42.144;24.722;2022-10-04T20:54:58;100296.50;;;15.31;67.39
6853;BME280;3465;42.144;24.722;2022-10-04T20:57:28;100305.94;;;15.26;67.16
6853;BME280;3465;42.144;24.722;2022-10-04T20:59:55;100301.63;;;15.25;67.68
6853;BME280;3465;42.144;24.722;2022-10-04T21:02:22;100302.44;;;15.21;68.00
6853;BME280;3465;42.144;24.722;2022-10-04T21:04:49;100305.84;;;15.15;68.26
6853;BME280;3465;42.144;24.722;2022-10-04T21:07:22;100302.38;;;15.15;68.60
6853;BME280;3465;42.144;24.722;2022-10-04T21:09:49;100303.25;;;15.12;68.17
6853;BME280;3465;42.144;24.722;2022-10-04T21:12:36;100304.94;;;15.09;68.50
6853;BME280;3465;42.144;24.722;2022-10-04T21:19:56;100296.97;;;14.89;69.08
6853;BME280;3465;42.144;24.722;2022-10-04T21:27:34;100306.53;;;14.95;69.41
6853;BME280;3465;42.144;24.722;2022-10-04T21:30:05;100300.41;;;14.85;69.29
6853;BME280;3465;42.144;24.722;2022-10-04T21:32:36;100293.41;;;14.75;69.73
6853;BME280;3465;42.144;24.722;2022-10-04T21:35:03;100298.63;;;14.81;69.62
6853;BME280;3465;42.144;24.722;2022-10-04T21:37:30;100305.44;;;14.73;70.16
6853;BME280;3465;42.144;24.722;2022-10-04T21:39:56;100301.00;;;14.62;70.84
6853;BME280;3465;42.144;24.722;2022-10-04T21:42:22;100288.91;;;14.59;70.25
6853;BME280;3465;42.144;24.722;2022-10-04T21:44:47;100295.78;;;14.57;70.89
6853;BME280;3465;42.144;24.722;2022-10-04T21:47:13;100297.50;;;14.57;70.75
6853;BME280;3465;42.144;24.722;2022-10-04T21:49:38;100301.84;;;14.61;70.85
6853;BME280;3465;42.144;24.722;2022-10-04T21:52:04;100300.97;;;14.60;70.85
6853;BME280;3465;42.144;24.722;2022-10-04T21:54:30;100311.28;;;14.56;71.03
6853;BME280;3465;42.144;24.722;2022-10-04T21:56:56;100306.84;;;14.46;72.04
6853;BME280;3465;42.144;24.722;2022-10-04T21:59:21;100297.22;;;14.32;72.23
6853;BME280;3465;42.144;24.722;2022-10-04T22:01:47;100306.66;;;14.29;72.49
6853;BME280;3465;42.144;24.722;2022-10-04T22:04:12;100305.78;;;14.27;72.56
6853;BME280;3465;42.144;24.722;2022-10-04T22:06:38;100302.19;;;14.19;72.68
6853;BME280;3465;42.144;24.722;2022-10-04T22:09:03;100330.66;;;14.23;73.45
6853;BME280;3465;42.144;24.722;2022-10-04T22:11:29;100262.91;;;13.78;73.69
6853;BME280;3465;42.144;24.722;2022-10-04T22:13:54;100310.56;;;14.01;74.15
6853;BME280;3465;42.144;24.722;2022-10-04T22:16:20;100323.50;;;14.03;74.57
6853;BME280;3465;42.144;24.722;2022-10-04T22:18:45;100316.50;;;13.96;74.95
6853;BME280;3465;42.144;24.722;2022-10-04T22:21:10;100322.56;;;13.96;74.85
6853;BME280;3465;42.144;24.722;2022-10-04T22:23:38;100319.91;;;13.90;75.62
6853;BME280;3465;42.144;24.722;2022-10-04T22:26:11;100303.31;;;13.76;75.96
6853;BME280;3465;42.144;24.722;2022-10-04T22:28:52;100326.66;;;13.82;76.83
6853;BME280;3465;42.144;24.722;2022-10-04T22:31:20;100314.47;;;13.72;76.77
6853;BME280;3465;42.144;24.722;2022-10-04T22:33:48;100333.47;;;13.77;77.07
6853;BME280;3465;42.144;24.722;2022-10-04T22:36:18;100325.69;;;13.74;77.08
6853;BME280;3465;42.144;24.722;2022-10-04T22:38:48;100329.94;;;13.71;77.35
6853;BME280;3465;42.144;24.722;2022-10-04T22:41:16;100338.38;;;13.62;78.30
6853;BME280;3465;42.144;24.722;2022-10-04T22:43:44;100315.78;;;13.48;78.45
6853;BME280;3465;42.144;24.722;2022-10-04T22:46:19;100340.00;;;13.56;78.51
6853;BME280;3465;42.144;24.722;2022-10-04T22:48:47;100323.50;;;13.46;78.99
6853;BME280;3465;42.144;24.722;2022-10-04T22:51:13;100345.00;;;13.44;79.46
6853;BME280;3465;42.144;24.722;2022-10-04T22:53:43;100337.19;;;13.41;79.69
6853;BME280;3465;42.144;24.722;2022-10-04T22:56:11;100344.00;;;13.37;80.26
6853;BME280;3465;42.144;24.722;2022-10-04T22:58:37;100341.41;;;13.36;79.52
6853;BME280;3465;42.144;24.722;2022-10-04T23:01:11;100338.72;;;13.30;79.36
6853;BME280;3465;42.144;24.722;2022-10-04T23:03:36;100348.25;;;13.34;79.53
6853;BME280;3465;42.144;24.722;2022-10-04T23:06:02;100339.47;;;13.23;80.10
6853;BME280;3465;42.144;24.722;2022-10-04T23:08:28;100319.38;;;13.05;80.05
6853;BME280;3465;42.144;24.722;2022-10-04T23:10:58;100342.88;;;13.22;80.40
6853;BME280;3465;42.144;24.722;2022-10-04T23:13:25;100338.59;;;13.22;79.83
6853;BME280;3465;42.144;24.722;2022-10-04T23:15:55;100344.69;;;13.27;79.28
6853;BME280;3465;42.144;24.722;2022-10-04T23:18:21;100282.97;;;12.90;80.12
6853;BME280;3465;42.144;24.722;2022-10-04T23:20:53;100363.50;;;13.22;80.17
6853;BME280;3465;42.144;24.722;2022-10-04T23:23:19;100355.75;;;13.22;80.05
6853;BME280;3465;42.144;24.722;2022-10-04T23:25:48;100361.78;;;13.21;80.50
6853;BME280;3465;42.144;24.722;2022-10-04T23:28:16;100338.28;;;13.06;79.97
6853;BME280;3465;42.144;24.722;2022-10-04T23:30:43;100351.38;;;13.16;80.21
6853;BME280;3465;42.144;24.722;2022-10-04T23:33:28;100365.16;;;13.17;80.87
6853;BME280;3465;42.144;24.722;2022-10-04T23:35:54;100369.41;;;13.13;81.22
6853;BME280;3465;42.144;24.722;2022-10-04T23:38:20;100354.56;;;13.02;81.44
6853;BME280;3465;42.144;24.722;2022-10-04T23:40:46;100351.84;;;12.95;81.44